F/V Mare Liberum — FVHW — position and weather

sailwx.info

Track history (hours):
 
Tides and Currents Weather Stations Pressure Air Temp Water Temp Dewpoint Dewpoint Depression Visibility Wind Speed Wind Dir Waves Ship Positions

F/V Mare Liberum

Last reported at 2016-Mar-17 22:33 UTC. Time now 2016-May-05 21:54 UTC.
Position N 46°30' W 001°48'.
Warning: this ship's position is 48 days out of date.

Length 21 m.

Type: Fishing. MMSI: 227426000.

Date/timePositionNaut miles runAvg speedWind from/ knotsBaromVisibWave heightAir tempDewpointWater temp
2016-Mar-17 22:33N 46°30' W 001°48'2 2.1
2016-Mar-17 21:33N 46°29' W 001°50'9 9.2
2016-Mar-17 20:33N 46°35' W 002°00'6 5.5
2016-Mar-17 19:33N 46°39' W 002°06'5 5.2
2016-Mar-17 18:33N 46°43' W 002°11'19 4.7
2016-Mar-17 14:31N 46°60' W 002°23'4 3.6
2016-Mar-17 13:33N 47°01' W 002°18'0 0.0
2016-Mar-17 12:33N 47°01' W 002°18'0 0.0
2016-Mar-17 11:33N 47°01' W 002°18'0 0.0
2016-Mar-17 10:29N 47°01' W 002°18'0 0.0
2016-Mar-17 09:31N 47°01' W 002°18'0 0.1
2016-Mar-17 08:33N 47°02' W 002°18'0 0.0
2016-Mar-17 07:33N 47°02' W 002°18'0 0.1
2016-Mar-17 06:33N 47°01' W 002°18'0 0.0
2016-Mar-17 05:32N 47°01' W 002°18'0 0.0
2016-Mar-17 04:33N 47°01' W 002°18'0 0.0
2016-Mar-17 03:33N 47°01' W 002°18'0 0.0
2016-Mar-17 02:33N 47°01' W 002°18'0 0.0
2016-Mar-17 01:33N 47°01' W 002°18'0 0.0
2016-Mar-17 00:33N 47°01' W 002°18'0 0.0
2016-Mar-16 23:33N 47°01' W 002°18'0 0.0
2016-Mar-16 22:33N 47°01' W 002°18'0 0.0
2016-Mar-16 21:33N 47°01' W 002°18'0 0.0
2016-Mar-16 20:33N 47°01' W 002°18'0 0.1
2016-Mar-16 19:33N 47°02' W 002°18'  
2016-Mar-10 19:29N 46°60' W 002°29'7 7.5
2016-Mar-10 18:30N 47°02' W 002°18'0 0.1
2016-Mar-10 17:33N 47°01' W 002°18'0 0.0
2016-Mar-10 16:33N 47°01' W 002°18'0 0.0
2016-Mar-10 15:33N 47°01' W 002°18'0 0.0
2016-Mar-10 14:33N 47°01' W 002°18'0 0.0
2016-Mar-10 13:33N 47°01' W 002°18'0 0.0
2016-Mar-10 12:34N 47°01' W 002°18'0 0.0
2016-Mar-10 09:31N 47°01' W 002°18'0 0.0
2016-Mar-10 08:33N 47°01' W 002°18'0 0.0
2016-Mar-10 07:33N 47°01' W 002°18'0 0.0
2016-Mar-10 06:32N 47°01' W 002°18'0 0.0
2016-Mar-10 05:30N 47°01' W 002°18'0 0.0
2016-Mar-10 04:33N 47°01' W 002°18'0 0.0
2016-Mar-10 03:33N 47°01' W 002°18'0 0.0
2016-Mar-10 02:33N 47°01' W 002°18'0 0.0
2016-Mar-10 01:33N 47°01' W 002°18'0 0.0
2016-Mar-10 00:33N 47°01' W 002°18'0 0.0
2016-Mar-09 21:14N 47°01' W 002°18'0 0.0
2016-Mar-09 20:33N 47°01' W 002°18'0 0.0
2016-Mar-09 19:32N 47°01' W 002°18'0 0.0
2016-Mar-09 18:23N 47°01' W 002°18'0 0.0
2016-Mar-09 17:32N 47°01' W 002°18'0 0.0
2016-Mar-09 16:32N 47°01' W 002°18'0 0.0
2016-Mar-09 15:33N 47°01' W 002°18'0 0.0
2016-Mar-09 13:24N 47°01' W 002°18'0 0.0
2016-Mar-09 12:30N 47°01' W 002°18'0 0.0
2016-Mar-09 11:33N 47°01' W 002°18'0 0.0
2016-Mar-09 10:28N 47°01' W 002°18'0 0.0
2016-Mar-09 09:23N 47°01' W 002°18'0 0.0
2016-Mar-09 08:33N 47°01' W 002°18'0 0.0
2016-Mar-09 07:33N 47°01' W 002°18'0 0.0
2016-Mar-09 06:33N 47°01' W 002°18'0 0.0
2016-Mar-09 05:33N 47°01' W 002°18'0 0.0
2016-Mar-09 04:33N 47°01' W 002°18'0 0.0
2016-Mar-09 03:33N 47°01' W 002°18'0 0.0
2016-Mar-09 02:33N 47°01' W 002°18'0 0.0
2016-Mar-09 01:33N 47°01' W 002°18'0 0.0
2016-Mar-09 00:33N 47°01' W 002°18'0 0.0
2016-Mar-08 23:33N 47°01' W 002°18'0 0.0
2016-Mar-08 22:33N 47°01' W 002°18'0 0.0
2016-Mar-08 21:33N 47°01' W 002°18'0 0.0
2016-Mar-08 20:32N 47°01' W 002°18'0 0.0
2016-Mar-08 19:33N 47°01' W 002°18'0 0.0
2016-Mar-08 18:33N 47°01' W 002°18'0 0.0
2016-Mar-08 17:32N 47°01' W 002°18'0 0.0
2016-Mar-08 16:31N 47°01' W 002°18'0 0.1
2016-Mar-08 15:32N 47°02' W 002°18'0 0.1
2016-Mar-08 14:09N 47°02' W 002°18'  
Track history (hours):
 
Tides and Currents Weather Stations Pressure Air Temp Water Temp Dewpoint Dewpoint Depression Visibility Wind Speed Wind Dir Waves Ship Positions

F/V Mare Liberum

Last reported at 2016-Mar-17 22:33 UTC. Time now 2016-May-05 21:54 UTC.
Position N 46°30' W 001°48'.
Warning: this ship's position is 48 days out of date.

Length 21 m.

Type: Fishing. MMSI: 227426000.

Date/timePositionNaut miles runAvg speedWind from/ knotsBaromVisibWave heightAir tempDewpointWater temp
2016-Mar-17 22:33N 46°30' W 001°48'2 2.1
2016-Mar-17 21:33N 46°29' W 001°50'9 9.2
2016-Mar-17 20:33N 46°35' W 002°00'6 5.5
2016-Mar-17 19:33N 46°39' W 002°06'5 5.2
2016-Mar-17 18:33N 46°43' W 002°11'19 4.7
2016-Mar-17 14:31N 46°60' W 002°23'4 3.6
2016-Mar-17 13:33N 47°01' W 002°18'0 0.0
2016-Mar-17 12:33N 47°01' W 002°18'0 0.0
2016-Mar-17 11:33N 47°01' W 002°18'0 0.0
2016-Mar-17 10:29N 47°01' W 002°18'0 0.0
2016-Mar-17 09:31N 47°01' W 002°18'0 0.1
2016-Mar-17 08:33N 47°02' W 002°18'0 0.0
2016-Mar-17 07:33N 47°02' W 002°18'0 0.1
2016-Mar-17 06:33N 47°01' W 002°18'0 0.0
2016-Mar-17 05:32N 47°01' W 002°18'0 0.0
2016-Mar-17 04:33N 47°01' W 002°18'0 0.0
2016-Mar-17 03:33N 47°01' W 002°18'0 0.0
2016-Mar-17 02:33N 47°01' W 002°18'0 0.0
2016-Mar-17 01:33N 47°01' W 002°18'0 0.0
2016-Mar-17 00:33N 47°01' W 002°18'0 0.0
2016-Mar-16 23:33N 47°01' W 002°18'0 0.0
2016-Mar-16 22:33N 47°01' W 002°18'0 0.0
2016-Mar-16 21:33N 47°01' W 002°18'0 0.0
2016-Mar-16 20:33N 47°01' W 002°18'0 0.1
2016-Mar-16 19:33N 47°02' W 002°18'  
2016-Mar-10 19:29N 46°60' W 002°29'7 7.5
2016-Mar-10 18:30N 47°02' W 002°18'0 0.1
2016-Mar-10 17:33N 47°01' W 002°18'0 0.0
2016-Mar-10 16:33N 47°01' W 002°18'0 0.0
2016-Mar-10 15:33N 47°01' W 002°18'0 0.0
2016-Mar-10 14:33N 47°01' W 002°18'0 0.0
2016-Mar-10 13:33N 47°01' W 002°18'0 0.0
2016-Mar-10 12:34N 47°01' W 002°18'0 0.0
2016-Mar-10 09:31N 47°01' W 002°18'0 0.0
2016-Mar-10 08:33N 47°01' W 002°18'0 0.0
2016-Mar-10 07:33N 47°01' W 002°18'0 0.0
2016-Mar-10 06:32N 47°01' W 002°18'0 0.0
2016-Mar-10 05:30N 47°01' W 002°18'0 0.0
2016-Mar-10 04:33N 47°01' W 002°18'0 0.0
2016-Mar-10 03:33N 47°01' W 002°18'0 0.0
2016-Mar-10 02:33N 47°01' W 002°18'0 0.0
2016-Mar-10 01:33N 47°01' W 002°18'0 0.0
2016-Mar-10 00:33N 47°01' W 002°18'0 0.0
2016-Mar-09 21:14N 47°01' W 002°18'0 0.0
2016-Mar-09 20:33N 47°01' W 002°18'0 0.0
2016-Mar-09 19:32N 47°01' W 002°18'0 0.0
2016-Mar-09 18:23N 47°01' W 002°18'0 0.0
2016-Mar-09 17:32N 47°01' W 002°18'0 0.0
2016-Mar-09 16:32N 47°01' W 002°18'0 0.0
2016-Mar-09 15:33N 47°01' W 002°18'0 0.0
2016-Mar-09 13:24N 47°01' W 002°18'0 0.0
2016-Mar-09 12:30N 47°01' W 002°18'0 0.0
2016-Mar-09 11:33N 47°01' W 002°18'0 0.0
2016-Mar-09 10:28N 47°01' W 002°18'0 0.0
2016-Mar-09 09:23N 47°01' W 002°18'0 0.0
2016-Mar-09 08:33N 47°01' W 002°18'0 0.0
2016-Mar-09 07:33N 47°01' W 002°18'0 0.0
2016-Mar-09 06:33N 47°01' W 002°18'0 0.0
2016-Mar-09 05:33N 47°01' W 002°18'0 0.0
2016-Mar-09 04:33N 47°01' W 002°18'0 0.0
2016-Mar-09 03:33N 47°01' W 002°18'0 0.0
2016-Mar-09 02:33N 47°01' W 002°18'0 0.0
2016-Mar-09 01:33N 47°01' W 002°18'0 0.0
2016-Mar-09 00:33N 47°01' W 002°18'0 0.0
2016-Mar-08 23:33N 47°01' W 002°18'0 0.0
2016-Mar-08 22:33N 47°01' W 002°18'0 0.0
2016-Mar-08 21:33N 47°01' W 002°18'0 0.0
2016-Mar-08 20:32N 47°01' W 002°18'0 0.0
2016-Mar-08 19:33N 47°01' W 002°18'0 0.0
2016-Mar-08 18:33N 47°01' W 002°18'0 0.0
2016-Mar-08 17:32N 47°01' W 002°18'0 0.0
2016-Mar-08 16:31N 47°01' W 002°18'0 0.1
2016-Mar-08 15:32N 47°02' W 002°18'0 0.1
2016-Mar-08 14:09N 47°02' W 002°18'  

Dump ship's entire track history